Terminal Aerodrome Forecast
Issued by NWS

Home | Current Version | Previous Version | Text Only | Print | Product List | Glossary On
Versions: 1 2 3 4 5 6 7 8 9 10 11 12 13 14 15 16 17
000
FTUS45 KCYS 171200 AAA
TAFAIA
TAF AMD
KAIA 171253Z 1713/1812 16011KT P6SM BKN010 OVC050
     FM171700 17015G25KT P6SM SCT100
     FM172300 19012KT P6SM BKN100
     FM180300 16016G27KT P6SM SCT120=

USA.gov is the U.S. government's official web portal to all federal, state and local government web resources and services.